Time;durP1;ratioP1;P1;durP2;ratioP2;P2;SDS_P1;SDS_P2;PMS_P1;PMS_P2;Temp;Humidity;BMP_temperature;BMP_pressure;BME280_temperature;BME280_humidity;BME280_pressure;Samples;Min_cycle;Max_cycle;Signal;HPM_P1;HPM_P2
2022/04/30 00:01:28;;;;;;;5.70;5.10;;;10.50;99.90;;;;;;4997620;28;20212;-80
2022/04/30 00:03:55;;;;;;;7.87;5.73;;;10.70;99.90;;;;;;4981332;28;20225;-80
2022/04/30 00:06:23;;;;;;;5.53;5.03;;;10.70;99.90;;;;;;4971059;28;20216;-80
2022/04/30 00:08:50;;;;;;;8.00;4.87;;;10.60;99.90;;;;;;4971829;28;20197;-80
2022/04/30 00:11:19;;;;;;;6.80;5.63;;;10.60;99.90;;;;;;4968343;28;20212;-80
2022/04/30 00:13:47;;;;;;;6.03;4.60;;;10.60;99.90;;;;;;4986560;28;20213;-80
2022/04/30 00:16:14;;;;;;;5.83;5.23;;;10.70;99.90;;;;;;4973252;28;20205;-80
2022/04/30 00:18:42;;;;;;;6.20;5.67;;;10.60;99.90;;;;;;4974877;28;20207;-80
2022/04/30 00:21:09;;;;;;;7.53;5.53;;;10.60;99.90;;;;;;4979730;28;20204;-80
2022/04/30 00:23:37;;;;;;;7.70;5.80;;;10.60;99.90;;;;;;4977836;28;20220;-81
2022/04/30 00:26:05;;;;;;;10.13;5.00;;;10.60;99.90;;;;;;4976176;28;20208;-81
2022/04/30 00:28:34;;;;;;;8.03;4.80;;;10.40;99.90;;;;;;4974244;28;20211;-81
2022/04/30 00:31:03;;;;;;;6.20;5.23;;;10.40;99.90;;;;;;4971458;28;20193;-81
2022/04/30 00:33:31;;;;;;;6.33;4.87;;;10.40;99.90;;;;;;4984015;28;20223;-81
2022/04/30 00:35:59;;;;;;;7.40;5.00;;;10.50;99.90;;;;;;4974921;28;20212;-81
2022/04/30 00:38:27;;;;;;;6.50;5.10;;;10.50;99.90;;;;;;4972242;28;20189;-81
2022/04/30 00:40:55;;;;;;;6.17;4.33;;;10.40;99.90;;;;;;4977386;28;20212;-81
2022/04/30 00:43:22;;;;;;;6.60;5.23;;;10.50;99.90;;;;;;4988132;28;20567;-81
2022/04/30 00:45:51;;;;;;;7.30;4.87;;;10.30;99.90;;;;;;4974265;28;20213;-81
2022/04/30 00:48:19;;;;;;;7.27;5.20;;;10.40;99.90;;;;;;4970236;28;20694;-81
2022/04/30 00:50:46;;;;;;;7.33;5.23;;;10.40;99.90;;;;;;4979051;28;20212;-81
2022/04/30 00:53:19;;;;;;;6.90;4.90;;;10.40;99.90;;;;;;4974050;28;20201;-81
2022/04/30 00:55:49;;;;;;;6.77;4.70;;;10.50;99.90;;;;;;4973197;28;20572;-81
2022/04/30 00:58:21;;;;;;;6.87;4.87;;;10.50;99.90;;;;;;4994164;28;20204;-81
2022/04/30 01:00:51;;;;;;;5.30;4.60;;;10.50;99.90;;;;;;4977684;28;20185;-81
2022/04/30 01:03:40;;;;;;;7.20;5.30;;;10.50;99.90;;;;;;4977445;28;20232;-81
2022/04/30 01:06:12;;;;;;;6.13;5.47;;;10.40;99.90;;;;;;4987545;28;20205;-81
2022/04/30 01:08:40;;;;;;;5.63;4.67;;;10.50;99.90;;;;;;4974434;28;20196;-81
2022/04/30 01:11:08;;;;;;;7.80;5.57;;;10.50;99.90;;;;;;4975944;28;20208;-81
2022/04/30 01:13:38;;;;;;;6.33;4.93;;;10.40;99.90;;;;;;4990497;28;20222;-81
2022/04/30 01:16:08;;;;;;;6.63;5.47;;;10.50;99.90;;;;;;4978363;28;20205;-81
2022/04/30 01:18:39;;;;;;;6.60;4.93;;;10.30;99.90;;;;;;4973630;28;20193;-81
2022/04/30 01:21:11;;;;;;;9.37;4.93;;;10.40;99.90;;;;;;4970842;28;20193;-81
2022/04/30 01:23:42;;;;;;;6.97;4.73;;;10.40;99.90;;;;;;4980026;28;20217;-81
2022/04/30 01:26:13;;;;;;;7.17;4.80;;;10.40;99.90;;;;;;4979751;28;20206;-81
2022/04/30 01:28:43;;;;;;;6.67;4.67;;;10.40;99.90;;;;;;4980191;28;20238;-81
2022/04/30 01:39:25;;;;;;;6.17;4.87;;;10.20;99.90;;;;;;4968726;28;20202;-81
2022/04/30 01:41:54;;;;;;;8.17;4.63;;;10.20;99.90;;;;;;4982339;28;20209;-81
2022/04/30 01:44:23;;;;;;;5.30;4.60;;;10.20;99.90;;;;;;4996503;28;20220;-81
2022/04/30 01:46:51;;;;;;;7.80;5.17;;;10.20;99.90;;;;;;4996796;28;20726;-81
2022/04/30 01:49:19;;;;;;;5.70;4.50;;;9.90;99.90;;;;;;4989731;28;20205;-81
2022/04/30 01:51:50;;;;;;;4.77;4.00;;;10.10;99.90;;;;;;4971052;28;20682;-81
2022/04/30 01:54:17;;;;;;;6.33;4.27;;;10.10;99.90;;;;;;4991547;28;20228;-81
2022/04/30 01:56:46;;;;;;;4.93;4.43;;;10.10;99.90;;;;;;4992181;28;20201;-81
2022/04/30 01:59:18;;;;;;;6.77;4.10;;;10.00;99.90;;;;;;4972592;28;20193;-81
2022/04/30 02:01:45;;;;;;;5.70;4.50;;;10.00;99.90;;;;;;4995924;28;20201;-81
2022/04/30 02:04:13;;;;;;;5.63;4.80;;;9.90;99.90;;;;;;4992106;28;20237;-81
2022/04/30 02:06:41;;;;;;;5.83;4.00;;;9.80;99.90;;;;;;4978913;28;20205;-81
2022/04/30 02:09:08;;;;;;;4.43;4.03;;;9.80;99.90;;;;;;4978150;28;20200;-81
2022/04/30 02:11:38;;;;;;;6.77;4.53;;;9.80;99.90;;;;;;4992419;28;20196;-81
2022/04/30 02:14:11;;;;;;;5.93;4.53;;;9.70;99.90;;;;;;4975344;28;20224;-81
2022/04/30 02:16:41;;;;;;;6.40;3.93;;;9.60;99.90;;;;;;4990449;28;20201;-81
2022/04/30 02:19:09;;;;;;;8.83;4.53;;;9.60;99.90;;;;;;4976727;28;20197;-81
2022/04/30 02:21:38;;;;;;;6.50;4.27;;;9.60;99.90;;;;;;4970534;28;20205;-81
2022/04/30 02:24:08;;;;;;;5.17;4.03;;;9.60;99.90;;;;;;4975787;28;20244;-81
2022/04/30 02:26:35;;;;;;;5.60;4.77;;;9.60;99.90;;;;;;4988978;28;20597;-81
2022/04/30 02:29:02;;;;;;;5.93;4.53;;;9.60;99.90;;;;;;4985758;28;20221;-81
2022/04/30 02:31:31;;;;;;;7.00;4.07;;;9.60;99.90;;;;;;4973632;28;20652;-81
2022/04/30 02:33:59;;;;;;;9.53;5.03;;;9.60;99.90;;;;;;4992048;28;20228;-81
2022/04/30 02:36:27;;;;;;;5.47;4.40;;;9.50;99.90;;;;;;4991895;28;20681;-81
2022/04/30 02:38:55;;;;;;;5.70;4.60;;;9.40;99.90;;;;;;4978295;28;20189;-81
2022/04/30 02:41:23;;;;;;;6.03;5.40;;;9.40;99.90;;;;;;4975599;28;20208;-81
2022/04/30 02:43:51;;;;;;;7.63;5.13;;;9.40;99.90;;;;;;4993218;28;20255;-81
2022/04/30 02:46:19;;;;;;;8.53;5.00;;;9.30;99.90;;;;;;4989815;28;20201;-81
2022/04/30 02:48:49;;;;;;;6.23;4.60;;;9.40;99.90;;;;;;4976124;28;20213;-80
2022/04/30 02:51:16;;;;;;;5.90;5.03;;;9.40;99.90;;;;;;4991830;28;20205;-81
2022/04/30 02:53:45;;;;;;;5.20;4.70;;;9.50;99.90;;;;;;4977007;28;20236;-81
2022/04/30 02:56:12;;;;;;;6.87;5.37;;;9.50;99.90;;;;;;4993212;28;20202;-81
2022/04/30 03:01:25;;;;;;;6.57;5.20;;;9.50;99.90;;;;;;4978133;28;20553;-81
2022/04/30 03:04:25;;;;;;;6.47;5.70;;;9.50;99.90;;;;;;4979836;28;20216;-81
2022/04/30 03:06:52;;;;;;;6.93;4.70;;;9.50;99.90;;;;;;4976918;28;20213;-81
2022/04/30 03:09:20;;;;;;;7.37;5.43;;;9.40;99.90;;;;;;4974346;28;20224;-81
2022/04/30 03:11:49;;;;;;;7.77;5.40;;;9.40;99.90;;;;;;4974022;28;20216;-81
2022/04/30 03:14:20;;;;;;;8.53;5.13;;;9.40;99.90;;;;;;4979141;28;20674;-81
2022/04/30 03:22:19;;;;;;;7.83;5.60;;;9.20;99.90;;;;;;4971713;28;20201;-81
2022/04/30 03:24:48;;;;;;;5.83;5.20;;;9.20;99.90;;;;;;4978092;28;20220;-81
2022/04/30 03:27:17;;;;;;;7.73;5.40;;;9.20;99.90;;;;;;4988748;28;20209;-81
2022/04/30 03:29:46;;;;;;;6.50;5.57;;;9.30;99.90;;;;;;4972654;28;20197;-81
2022/04/30 03:32:14;;;;;;;7.07;5.23;;;9.20;99.90;;;;;;4986748;28;20214;-81
2022/04/30 03:34:45;;;;;;;8.53;5.77;;;9.20;99.90;;;;;;4975950;28;20217;-81
2022/04/30 03:37:13;;;;;;;6.87;6.00;;;9.10;99.90;;;;;;4977425;28;20205;-81
2022/04/30 03:39:40;;;;;;;6.03;5.10;;;9.10;99.90;;;;;;4990325;28;20189;-81
2022/04/30 03:42:21;;;;;;;9.67;5.57;;;9.00;99.90;;;;;;4973840;28;20678;-81
2022/04/30 03:44:53;;;;;;;6.83;6.00;;;8.90;99.90;;;;;;4974371;28;20223;-80
2022/04/30 03:47:20;;;;;;;10.33;5.67;;;8.80;99.90;;;;;;4988014;28;20212;-81
2022/04/30 03:49:49;;;;;;;8.43;5.20;;;8.70;99.90;;;;;;4988824;23;20217;-83
2022/04/30 03:52:17;;;;;;;7.63;4.80;;;9.30;99.90;;;;;;4966998;28;20573;-82
2022/04/30 03:54:44;;;;;;;10.67;5.60;;;10.30;99.90;;;;;;4980298;28;20204;-83
2022/04/30 03:57:13;;;;;;;14.13;6.40;;;11.00;99.90;;;;;;4967240;28;20208;-84
2022/04/30 03:59:41;;;;;;;5.53;4.67;;;10.50;99.90;;;;;;4975760;28;20222;-83
2022/04/30 04:02:08;;;;;;;8.00;4.93;;;11.10;99.90;;;;;;4987756;28;20201;-84
2022/04/30 04:04:36;;;;;;;7.70;5.90;;;11.50;99.90;;;;;;4970203;28;20704;-83
2022/04/30 04:07:05;;;;;;;8.13;6.33;;;11.50;99.30;;;;;;4971085;28;20283;-84
2022/04/30 04:09:32;;;;;;;10.00;5.23;;;10.00;99.90;;;;;;4964910;28;20225;-83
2022/04/30 04:12:00;;;;;;;7.63;6.27;;;9.30;99.90;;;;;;4963989;28;20193;-82
2022/04/30 04:19:56;;;;;;;25.80;10.40;;;9.40;99.90;;;;;;4972027;28;20219;-82
2022/04/30 04:22:25;;;;;;;21.60;8.33;;;10.00;99.90;;;;;;4969558;28;20197;-79
2022/04/30 04:27:37;;;;;;;8.23;5.73;;;10.80;99.90;;;;;;4962782;28;20197;-83
2022/04/30 04:30:06;;;;;;;11.70;5.97;;;10.10;99.90;;;;;;4960970;28;20721;-82
2022/04/30 04:32:35;;;;;;;7.50;4.87;;;9.90;99.90;;;;;;4963064;28;20663;-82
2022/04/30 04:35:02;;;;;;;7.03;5.67;;;10.70;99.90;;;;;;4967929;28;20202;-81
2022/04/30 04:37:31;;;;;;;35.17;10.83;;;9.60;99.90;;;;;;4968320;28;20230;-81
2022/04/30 04:39:59;;;;;;;8.20;6.00;;;9.40;99.90;;;;;;4983297;28;20232;-81
2022/04/30 04:42:26;;;;;;;10.40;6.23;;;9.40;99.90;;;;;;4995167;28;20214;-81
2022/04/30 04:44:56;;;;;;;6.83;5.53;;;9.10;99.90;;;;;;4989110;28;20683;-81
2022/04/30 04:47:23;;;;;;;7.23;5.60;;;8.50;99.90;;;;;;4996047;28;20713;-81
2022/04/30 04:49:51;;;;;;;6.67;5.90;;;8.60;99.90;;;;;;4970080;28;20231;-81
2022/04/30 04:52:18;;;;;;;8.53;5.90;;;8.80;99.90;;;;;;4961953;29;20205;-80
2022/04/30 04:54:47;;;;;;;8.13;6.43;;;9.00;99.90;;;;;;4977673;28;20206;-81
2022/04/30 04:57:15;;;;;;;6.87;5.60;;;8.90;99.90;;;;;;4975624;28;20201;-80
2022/04/30 04:59:42;;;;;;;9.30;5.97;;;9.00;99.90;;;;;;4987644;28;20221;-81
2022/04/30 05:02:10;;;;;;;6.40;5.27;;;8.50;99.90;;;;;;4976666;28;20220;-81
2022/04/30 05:04:38;;;;;;;9.33;6.40;;;8.20;99.90;;;;;;4980678;28;20201;-82
2022/04/30 05:07:05;;;;;;;8.43;6.33;;;7.90;99.90;;;;;;4979482;28;20205;-80
2022/04/30 05:09:33;;;;;;;7.10;6.07;;;7.90;99.90;;;;;;4971820;28;20225;-81
2022/04/30 05:12:03;;;;;;;7.10;6.40;;;7.80;99.90;;;;;;4973044;28;20212;-81
2022/04/30 05:14:31;;;;;;;8.50;5.80;;;7.70;99.90;;;;;;4980862;28;20197;-81
2022/04/30 05:16:59;;;;;;;8.30;6.47;;;7.80;99.90;;;;;;4996323;28;20694;-81
2022/04/30 05:19:27;;;;;;;7.97;5.90;;;7.80;99.90;;;;;;4980427;28;20227;-80
2022/04/30 05:21:54;;;;;;;7.77;6.20;;;7.90;99.90;;;;;;4972583;28;20651;-80
2022/04/30 05:24:21;;;;;;;6.63;5.53;;;8.00;99.90;;;;;;4980285;28;20193;-80
2022/04/30 05:26:49;;;;;;;10.60;5.93;;;8.40;99.90;;;;;;4979975;28;20224;-83
2022/04/30 05:29:18;;;;;;;7.80;5.77;;;8.50;99.90;;;;;;4974301;28;20230;-81
2022/04/30 05:31:46;;;;;;;12.90;6.13;;;8.50;99.90;;;;;;4979604;28;20197;-80
2022/04/30 05:34:13;;;;;;;8.30;6.03;;;8.70;99.90;;;;;;4992244;28;20205;-80
2022/04/30 05:36:41;;;;;;;7.97;5.73;;;8.80;99.90;;;;;;4982117;28;20193;-80
2022/04/30 05:39:08;;;;;;;7.67;5.60;;;8.70;99.90;;;;;;4990779;28;20193;-81
2022/04/30 05:41:36;;;;;;;8.17;6.33;;;8.90;99.90;;;;;;4979672;28;20200;-81
2022/04/30 05:44:07;;;;;;;9.07;5.70;;;9.00;99.90;;;;;;4996986;28;20201;-81
2022/04/30 05:46:35;;;;;;;8.17;5.37;;;9.30;99.90;;;;;;4979394;28;20209;-80
2022/04/30 05:49:03;;;;;;;8.70;5.50;;;9.40;99.90;;;;;;4975849;28;20217;-80
2022/04/30 05:51:30;;;;;;;9.27;6.13;;;9.40;99.90;;;;;;4971665;28;20201;-80
2022/04/30 05:54:01;;;;;;;7.20;5.77;;;9.40;99.90;;;;;;4963778;29;20217;-80
2022/04/30 05:56:29;;;;;;;7.57;5.97;;;9.30;99.90;;;;;;4964214;28;20201;-80
2022/04/30 05:58:56;;;;;;;7.20;5.40;;;9.40;99.90;;;;;;4981209;28;20685;-81
2022/04/30 06:01:26;;;;;;;8.23;5.40;;;9.50;99.90;;;;;;4979232;28;20201;-81
2022/04/30 06:03:55;;;;;;;9.17;5.67;;;9.70;99.90;;;;;;4980280;28;20201;-82
2022/04/30 06:06:26;;;;;;;8.20;5.87;;;9.80;99.90;;;;;;4985483;28;20783;-80
2022/04/30 06:08:53;;;;;;;9.53;5.90;;;9.80;99.90;;;;;;4995850;28;20201;-80
2022/04/30 06:11:23;;;;;;;7.77;5.60;;;9.80;99.90;;;;;;4993208;28;20225;-80
2022/04/30 06:13:51;;;;;;;7.27;4.93;;;9.90;99.90;;;;;;4979375;28;20220;-80
2022/04/30 06:16:18;;;;;;;6.20;5.03;;;9.90;99.90;;;;;;4972740;28;20201;-81
2022/04/30 06:18:46;;;;;;;7.23;5.40;;;9.90;99.90;;;;;;4990865;28;20212;-81
2022/04/30 06:21:15;;;;;;;6.67;5.47;;;9.70;99.90;;;;;;4982402;28;20247;-81
2022/04/30 06:23:42;;;;;;;7.63;6.07;;;9.70;99.90;;;;;;4975396;28;20554;-81
2022/04/30 06:26:10;;;;;;;10.23;5.87;;;9.90;99.90;;;;;;4988747;28;20675;-81
2022/04/30 06:28:40;;;;;;;10.77;5.40;;;10.00;99.90;;;;;;4981398;28;20198;-81
2022/04/30 06:31:09;;;;;;;8.47;5.70;;;10.00;99.90;;;;;;4999056;28;20236;-81
2022/04/30 06:33:39;;;;;;;10.03;6.00;;;10.10;99.90;;;;;;4982776;28;20193;-81
2022/04/30 06:36:07;;;;;;;10.73;6.17;;;10.10;99.90;;;;;;4994840;28;20204;-81
2022/04/30 06:38:36;;;;;;;10.13;5.63;;;9.90;99.90;;;;;;4982128;28;20224;-81
2022/04/30 06:41:06;;;;;;;7.57;5.63;;;10.00;99.90;;;;;;4978615;28;20218;-81
2022/04/30 06:43:34;;;;;;;10.07;6.00;;;10.10;99.90;;;;;;4983856;28;20205;-80
2022/04/30 06:46:01;;;;;;;7.70;6.17;;;9.90;99.90;;;;;;5000973;28;20200;-80
2022/04/30 06:48:29;;;;;;;7.17;5.27;;;9.80;99.90;;;;;;4998872;28;20208;-82
2022/04/30 06:50:56;;;;;;;9.87;5.80;;;9.90;99.90;;;;;;4994091;28;20220;-81
2022/04/30 06:58:59;;;;;;;9.97;5.47;;;10.40;99.90;;;;;;4980144;28;20204;-81
2022/04/30 07:01:38;;;;;;;5.87;4.93;;;10.30;99.90;;;;;;4992878;28;20580;-81
2022/04/30 07:04:07;;;;;;;7.80;5.43;;;10.20;99.90;;;;;;4985465;28;20263;-80
2022/04/30 07:06:35;;;;;;;8.97;6.03;;;10.30;99.90;;;;;;4986878;28;20212;-81
2022/04/30 07:09:04;;;;;;;7.73;5.80;;;10.20;99.90;;;;;;4980746;28;20609;-80
2022/04/30 07:11:33;;;;;;;8.63;5.60;;;10.40;99.90;;;;;;4982906;28;20201;-81
2022/04/30 07:14:00;;;;;;;7.70;5.43;;;10.60;99.90;;;;;;4981734;28;20201;-80
2022/04/30 07:16:28;;;;;;;6.77;5.27;;;10.40;99.90;;;;;;4996518;28;20201;-80
2022/04/30 07:18:55;;;;;;;6.87;5.37;;;10.40;99.90;;;;;;4997719;28;20227;-81
2022/04/30 07:21:24;;;;;;;9.50;5.87;;;10.40;99.90;;;;;;4991683;28;20194;-80
2022/04/30 07:23:51;;;;;;;7.50;5.40;;;10.40;99.90;;;;;;4984853;28;20216;-80
2022/04/30 07:26:19;;;;;;;6.67;5.50;;;10.50;99.90;;;;;;4981676;28;20674;-81
2022/04/30 07:28:48;;;;;;;8.20;5.90;;;10.50;99.90;;;;;;4978656;28;20197;-81
2022/04/30 07:31:15;;;;;;;8.07;5.57;;;10.50;99.90;;;;;;4981587;28;20233;-80
2022/04/30 07:33:43;;;;;;;7.23;5.10;;;10.80;99.90;;;;;;4968382;28;20197;-80
2022/04/30 07:36:10;;;;;;;8.47;5.77;;;10.90;99.90;;;;;;4967692;28;20209;-81
2022/04/30 07:38:39;;;;;;;7.17;5.23;;;10.80;99.90;;;;;;4977528;28;20208;-80
2022/04/30 07:41:07;;;;;;;7.27;5.00;;;10.70;99.90;;;;;;4973294;28;20224;-81
2022/04/30 07:43:35;;;;;;;7.70;4.90;;;10.80;99.90;;;;;;4978230;28;20204;-81
2022/04/30 07:46:03;;;;;;;8.33;4.97;;;10.60;99.90;;;;;;4979246;28;20281;-80
2022/04/30 07:48:31;;;;;;;6.20;5.33;;;10.40;99.90;;;;;;4994175;28;20201;-80
2022/04/30 07:50:59;;;;;;;8.00;5.23;;;10.50;99.90;;;;;;4979697;28;20236;-80
2022/04/30 07:53:26;;;;;;;7.67;5.40;;;10.70;99.90;;;;;;4988192;28;20189;-81
2022/04/30 07:55:54;;;;;;;7.87;5.40;;;10.70;99.90;;;;;;4986839;28;20211;-80
2022/04/30 07:58:22;;;;;;;6.37;5.23;;;10.60;99.90;;;;;;4981018;28;20197;-81
2022/04/30 08:00:49;;;;;;;8.97;5.23;;;10.60;99.90;;;;;;4990939;28;20213;-81
2022/04/30 08:03:18;;;;;;;8.20;4.90;;;10.50;99.90;;;;;;4996811;28;20201;-80
2022/04/30 08:05:46;;;;;;;7.13;5.13;;;10.60;99.90;;;;;;4994168;28;20197;-80
2022/04/30 08:08:14;;;;;;;8.03;5.27;;;10.60;99.90;;;;;;4996039;28;20666;-80
2022/04/30 08:10:41;;;;;;;8.27;4.97;;;10.60;99.90;;;;;;4978566;28;20221;-81
2022/04/30 08:13:09;;;;;;;6.83;5.00;;;10.70;99.90;;;;;;4962168;28;20205;-81
2022/04/30 08:15:43;;;;;;;7.13;4.63;;;10.70;99.90;;;;;;4960590;29;20202;-81
2022/04/30 08:18:10;;;;;;;6.87;4.20;;;10.80;99.90;;;;;;4979981;28;20193;-81
2022/04/30 08:20:40;;;;;;;6.73;4.40;;;11.00;99.90;;;;;;4980138;28;20213;-80
2022/04/30 08:23:08;;;;;;;8.00;3.93;;;11.20;99.00;;;;;;4980969;28;20197;-81
2022/04/30 08:25:36;;;;;;;5.10;3.33;;;11.40;98.50;;;;;;4982270;28;20197;-81
2022/04/30 08:28:04;;;;;;;6.50;3.77;;;11.20;95.70;;;;;;4979525;28;20197;-81
2022/04/30 08:30:32;;;;;;;4.97;4.27;;;11.10;95.90;;;;;;4982174;28;20209;-80
2022/04/30 08:32:59;;;;;;;4.63;4.20;;;11.10;96.10;;;;;;4996047;28;20204;-80
2022/04/30 08:35:27;;;;;;;5.37;4.47;;;11.00;96.70;;;;;;4996182;28;20201;-81
2022/04/30 08:37:56;;;;;;;9.93;4.60;;;11.10;96.70;;;;;;4995217;28;20197;-80
2022/04/30 08:40:24;;;;;;;6.70;4.17;;;11.00;96.40;;;;;;4973405;28;20218;-81
2022/04/30 08:42:51;;;;;;;7.50;4.20;;;11.00;96.10;;;;;;4975447;28;20205;-80
2022/04/30 08:45:22;;;;;;;5.97;3.90;;;11.10;95.90;;;;;;4976709;28;20209;-81
2022/04/30 08:47:53;;;;;;;5.83;4.07;;;11.30;95.80;;;;;;4960870;29;20220;-81
2022/04/30 08:50:20;;;;;;;6.07;4.30;;;11.50;95.50;;;;;;4976557;28;20225;-81
2022/04/30 08:52:48;;;;;;;4.63;4.00;;;11.60;94.90;;;;;;4979419;28;20201;-81
2022/04/30 08:55:16;;;;;;;5.87;4.10;;;11.60;95.00;;;;;;4968863;28;20193;-81
2022/04/30 08:57:44;;;;;;;7.17;4.60;;;11.90;95.00;;;;;;4960255;29;20575;-80
2022/04/30 09:00:12;;;;;;;5.67;4.67;;;12.00;94.60;;;;;;4976231;28;20225;-81
2022/04/30 09:02:49;;;;;;;5.47;4.73;;;12.10;94.20;;;;;;4975773;28;20201;-81
2022/04/30 09:05:17;;;;;;;8.47;5.23;;;11.80;94.40;;;;;;4958872;28;20189;-81
2022/04/30 09:07:54;;;;;;;6.13;4.57;;;11.50;95.00;;;;;;4959678;29;20201;-81
2022/04/30 09:10:24;;;;;;;5.20;4.13;;;11.60;95.30;;;;;;4958953;29;20224;-81
2022/04/30 09:12:52;;;;;;;5.73;3.80;;;11.80;94.30;;;;;;4972470;28;20204;-81
2022/04/30 09:15:20;;;;;;;5.80;3.97;;;11.80;93.50;;;;;;4994550;28;20208;-81
2022/04/30 09:17:57;;;;;;;4.73;3.70;;;11.90;92.60;;;;;;4981239;28;20189;-81
2022/04/30 09:20:25;;;;;;;4.63;4.23;;;11.90;93.10;;;;;;4982984;28;20224;-81
2022/04/30 09:22:52;;;;;;;4.80;4.17;;;11.70;93.40;;;;;;4980347;28;20205;-81
2022/04/30 09:25:20;;;;;;;5.33;4.63;;;11.70;93.10;;;;;;4981895;28;20205;-81
2022/04/30 09:27:51;;;;;;;4.27;3.87;;;11.50;93.30;;;;;;4982713;28;20201;-81
2022/04/30 09:30:20;;;;;;;5.23;3.37;;;11.70;93.70;;;;;;4983183;28;20224;-81
2022/04/30 09:32:58;;;;;;;4.23;3.87;;;11.70;92.20;;;;;;4982577;28;20209;-81
2022/04/30 09:38:13;;;;;;;6.13;4.30;;;11.80;93.40;;;;;;4964788;28;20196;-81
2022/04/30 09:40:41;;;;;;;7.77;4.73;;;11.90;93.50;;;;;;4983136;28;20201;-81
2022/04/30 09:43:19;;;;;;;5.20;4.37;;;12.10;93.00;;;;;;4977305;28;20685;-81
2022/04/30 09:45:48;;;;;;;5.37;3.97;;;12.00;91.30;;;;;;4981760;28;20201;-81
2022/04/30 09:53:57;;;;;;;5.40;3.40;;;12.40;92.80;;;;;;4965930;28;20209;-80
2022/04/30 09:56:34;;;;;;;5.77;3.87;;;12.30;91.60;;;;;;4981586;28;20204;-81
2022/04/30 09:59:06;;;;;;;6.03;3.80;;;12.50;91.10;;;;;;4999711;23;20325;-82
2022/04/30 10:01:34;;;;;;;5.23;3.73;;;12.60;91.20;;;;;;4987390;28;20196;-83
2022/04/30 10:04:07;;;;;;;5.03;4.10;;;12.90;91.10;;;;;;4990255;28;20205;-83
2022/04/30 10:06:37;;;;;;;4.65;3.80;;;12.80;90.30;;;;;;4991424;28;20207;-83
2022/04/30 10:09:13;;;;;;;4.23;3.83;;;12.70;88.00;;;;;;4990876;28;20228;-83
2022/04/30 10:11:48;;;;;;;5.70;3.67;;;12.60;86.90;;;;;;4991703;28;20213;-83
2022/04/30 10:14:31;;;;;;;5.00;3.90;;;12.40;87.10;;;;;;4984817;28;20281;-83
2022/04/30 10:17:16;;;;;;;5.23;4.20;;;12.60;86.80;;;;;;4972769;28;20214;-83
2022/04/30 10:19:46;;;;;;;4.53;3.80;;;12.70;87.50;;;;;;4972218;28;20201;-83
2022/04/30 10:22:15;;;;;;;5.77;4.07;;;13.00;88.50;;;;;;4992226;28;20200;-83
2022/04/30 10:24:47;;;;;;;5.20;4.70;;;13.20;87.80;;;;;;4989761;28;20617;-83
2022/04/30 10:27:15;;;;;;;7.75;4.78;;;12.90;88.30;;;;;;4971325;29;20212;-83
2022/04/30 10:29:58;;;;;;;6.27;4.73;;;13.10;90.50;;;;;;4994623;28;20209;-83
2022/04/30 10:32:32;;;;;;;4.90;4.40;;;13.50;89.30;;;;;;4989715;28;20217;-83
2022/04/30 10:35:01;;;;;;;5.10;4.60;;;13.60;90.00;;;;;;4984324;28;20210;-83
2022/04/30 10:37:30;;;;;;;5.93;5.10;;;13.70;90.30;;;;;;4990775;28;20568;-83
2022/04/30 10:39:58;;;;;;;7.53;4.82;;;13.70;90.10;;;;;;4990834;28;20211;-83
2022/04/30 10:42:32;;;;;;;4.65;4.25;;;14.00;90.30;;;;;;4990263;28;20208;-83
2022/04/30 10:45:01;;;;;;;6.38;5.10;;;13.80;88.30;;;;;;4997344;28;20203;-83
2022/04/30 10:47:28;;;;;;;7.13;4.60;;;13.60;87.00;;;;;;4970869;28;20228;-83
2022/04/30 10:49:58;;;;;;;4.75;3.90;;;13.60;86.80;;;;;;4972487;29;20202;-83
2022/04/30 10:52:26;;;;;;;5.22;4.43;;;13.80;86.40;;;;;;4975892;28;20224;-83
2022/04/30 10:54:56;;;;;;;5.80;4.78;;;13.70;84.30;;;;;;4982621;28;20193;-83
2022/04/30 10:57:23;;;;;;;5.25;4.68;;;13.40;84.30;;;;;;5006434;28;20204;-83
2022/04/30 10:59:58;;;;;;;6.65;5.22;;;13.20;85.20;;;;;;4979896;28;20202;-83
2022/04/30 11:02:32;;;;;;;6.18;4.72;;;13.00;85.00;;;;;;4984914;28;20212;-83
2022/04/30 11:05:00;;;;;;;6.70;4.80;;;13.10;84.70;;;;;;4979116;28;20216;-83
2022/04/30 11:07:29;;;;;;;5.07;4.45;;;13.50;84.20;;;;;;4973394;28;20217;-83
2022/04/30 11:09:56;;;;;;;5.88;4.20;;;14.00;86.60;;;;;;4986358;28;20204;-83
2022/04/30 11:12:30;;;;;;;5.28;4.57;;;13.70;83.10;;;;;;4986475;28;20248;-83
2022/04/30 11:14:58;;;;;;;4.90;3.85;;;13.40;83.90;;;;;;4976613;28;20215;-83
2022/04/30 11:17:26;;;;;;;4.97;4.47;;;13.30;84.80;;;;;;5004095;28;20200;-83
2022/04/30 11:19:55;;;;;;;4.53;4.13;;;13.50;84.70;;;;;;4982376;28;20197;-83
2022/04/30 11:22:23;;;;;;;4.80;3.88;;;13.90;84.50;;;;;;4990629;28;20193;-83
2022/04/30 11:24:56;;;;;;;4.72;4.22;;;14.30;83.40;;;;;;5006451;28;20204;-83
2022/04/30 11:27:24;;;;;;;7.47;4.40;;;14.80;80.60;;;;;;4989529;28;20193;-83
2022/04/30 11:29:55;;;;;;;4.15;3.85;;;14.80;79.60;;;;;;4986995;28;20211;-83
2022/04/30 11:32:24;;;;;;;5.55;4.50;;;15.20;80.40;;;;;;4985002;28;20235;-83
2022/04/30 11:34:53;;;;;;;7.80;4.65;;;15.20;80.10;;;;;;4989726;28;20211;-83
2022/04/30 11:37:22;;;;;;;7.05;4.40;;;15.40;81.60;;;;;;5004239;28;20263;-83
2022/04/30 11:39:50;;;;;;;4.70;4.18;;;15.50;80.50;;;;;;4996525;28;20190;-83
2022/04/30 11:42:19;;;;;;;6.43;4.68;;;15.60;82.60;;;;;;4985642;28;20199;-83
2022/04/30 11:44:54;;;;;;;5.40;4.10;;;15.50;77.20;;;;;;4984153;28;20201;-83
2022/04/30 11:47:22;;;;;;;4.38;3.97;;;16.10;76.00;;;;;;4995876;28;20293;-83
2022/04/30 11:49:50;;;;;;;5.07;4.20;;;15.50;73.60;;;;;;5001355;28;20216;-83
2022/04/30 11:52:18;;;;;;;5.28;4.50;;;15.70;72.20;;;;;;4992328;28;20220;-83
2022/04/30 11:54:47;;;;;;;5.82;4.57;;;16.00;70.80;;;;;;4985217;28;20207;-83
2022/04/30 11:57:15;;;;;;;4.65;4.15;;;15.40;69.80;;;;;;4987245;28;20204;-83
2022/04/30 11:59:42;;;;;;;5.25;4.32;;;15.80;72.30;;;;;;5003176;28;20201;-83
2022/04/30 12:02:12;;;;;;;5.10;4.60;;;15.70;72.20;;;;;;4983411;28;20208;-83
2022/04/30 12:04:41;;;;;;;5.75;4.18;;;15.90;72.60;;;;;;4986037;28;20189;-83
2022/04/30 12:07:09;;;;;;;4.72;4.25;;;16.20;73.20;;;;;;5001170;28;20206;-83
2022/04/30 12:09:38;;;;;;;5.82;4.47;;;16.10;71.90;;;;;;5003407;28;20221;-83
2022/04/30 12:12:17;;;;;;;5.38;4.38;;;16.70;72.30;;;;;;4982939;28;20227;-83
2022/04/30 12:14:45;;;;;;;4.10;3.80;;;16.80;70.40;;;;;;4981957;28;20224;-83
2022/04/30 12:17:13;;;;;;;6.18;4.00;;;17.10;66.70;;;;;;4988328;28;20203;-83
2022/04/30 12:25:30;;;;;;;3.92;3.53;;;16.60;68.00;;;;;;4987811;28;20199;-83
2022/04/30 12:28:02;;;;;;;5.20;3.88;;;16.10;64.50;;;;;;4983926;28;20221;-83
2022/04/30 12:30:33;;;;;;;4.38;3.67;;;15.90;65.40;;;;;;4986000;28;20297;-83
2022/04/30 12:33:04;;;;;;;4.53;3.97;;;16.00;65.50;;;;;;4988555;28;20208;-83
2022/04/30 12:35:33;;;;;;;5.30;3.38;;;16.30;64.50;;;;;;4987225;28;20211;-83
2022/04/30 12:38:06;;;;;;;3.20;2.90;;;16.50;63.40;;;;;;4981264;28;20701;-83
2022/04/30 12:40:34;;;;;;;3.10;2.80;;;16.70;62.20;;;;;;4987717;28;20205;-83
2022/04/30 12:43:03;;;;;;;4.78;3.80;;;17.20;62.40;;;;;;4993593;28;20193;-83
2022/04/30 12:45:31;;;;;;;3.80;3.50;;;17.80;59.80;;;;;;4979909;28;20205;-81
2022/04/30 12:47:59;;;;;;;3.60;3.25;;;17.90;56.80;;;;;;4986163;28;20221;-83
2022/04/30 12:50:27;;;;;;;4.18;3.67;;;16.60;57.70;;;;;;5002175;28;20208;-83
2022/04/30 12:52:54;;;;;;;3.75;3.30;;;16.80;61.60;;;;;;4987533;28;20211;-83
2022/04/30 12:55:22;;;;;;;4.43;3.80;;;16.90;58.80;;;;;;4990077;28;20193;-83
2022/04/30 12:57:49;;;;;;;3.70;3.08;;;16.50;58.50;;;;;;4988233;28;20239;-83
2022/04/30 13:00:20;;;;;;;4.55;3.65;;;16.30;59.20;;;;;;5000505;28;20201;-83
2022/04/30 13:02:47;;;;;;;4.15;3.75;;;16.00;58.50;;;;;;4992896;28;20205;-83
2022/04/30 13:05:15;;;;;;;3.58;3.13;;;16.00;59.90;;;;;;4992249;28;20201;-83
2022/04/30 13:07:44;;;;;;;4.07;3.30;;;16.90;61.30;;;;;;4985885;28;20213;-83
2022/04/30 13:15:45;;;;;;;4.95;3.15;;;17.50;54.40;;;;;;4982637;28;20201;-83
2022/04/30 13:18:13;;;;;;;4.38;3.38;;;18.00;56.80;;;;;;4989015;28;20231;-83
2022/04/30 13:20:42;;;;;;;5.53;3.45;;;17.30;59.80;;;;;;5000220;28;20198;-83
2022/04/30 13:23:09;;;;;;;4.82;3.05;;;17.50;60.20;;;;;;4983067;28;20193;-83
2022/04/30 13:25:37;;;;;;;3.53;3.10;;;17.30;59.70;;;;;;4987494;28;20194;-83
2022/04/30 13:28:07;;;;;;;3.40;3.10;;;17.50;59.10;;;;;;4972331;29;20225;-83
2022/04/30 13:30:37;;;;;;;3.53;3.22;;;17.20;58.80;;;;;;5002606;28;20208;-83
2022/04/30 13:33:12;;;;;;;4.43;2.75;;;16.70;57.50;;;;;;4975033;28;20226;-83
2022/04/30 13:35:41;;;;;;;3.25;2.95;;;16.40;58.10;;;;;;4987525;28;20197;-83
2022/04/30 13:38:09;;;;;;;4.65;3.15;;;16.10;57.30;;;;;;5008424;28;20217;-83
2022/04/30 13:40:45;;;;;;;3.67;3.20;;;16.00;58.20;;;;;;4980226;28;20202;-83
2022/04/30 13:43:15;;;;;;;3.60;3.03;;;16.20;58.30;;;;;;4987143;28;20189;-83
2022/04/30 13:45:44;;;;;;;3.65;3.20;;;15.90;57.00;;;;;;4992487;28;20189;-83
2022/04/30 13:48:13;;;;;;;3.33;2.72;;;15.50;57.00;;;;;;5003903;28;20719;-83
2022/04/30 13:50:42;;;;;;;3.83;3.30;;;15.80;58.50;;;;;;4991311;28;20205;-83